createdAt,value
2018-10-02T00:00:14.806Z,100.00
2018-10-02T00:02:43.886Z,100.00
2018-10-02T00:05:12.991Z,100.00
2018-10-02T00:07:42.043Z,100.00
2018-10-02T00:10:11.099Z,100.00
2018-10-02T00:12:45.165Z,100.00
2018-10-02T00:15:14.128Z,100.00
2018-10-02T00:17:43.690Z,100.00
2018-10-02T00:20:12.823Z,100.00
2018-10-02T00:22:42.110Z,100.00
2018-10-02T00:25:11.407Z,100.00
2018-10-02T00:27:40.695Z,100.00
2018-10-02T00:30:09.753Z,100.00
2018-10-02T00:32:38.796Z,100.00
2018-10-02T00:35:07.873Z,100.00
2018-10-02T00:37:36.959Z,100.00
2018-10-02T00:40:06.524Z,100.00
2018-10-02T00:42:35.571Z,100.00
2018-10-02T00:45:04.619Z,100.00
2018-10-02T00:47:33.764Z,100.00
2018-10-02T00:50:03.434Z,100.00
2018-10-02T00:52:32.877Z,100.00
2018-10-02T00:55:01.968Z,100.00
2018-10-02T00:57:31.486Z,100.00
2018-10-02T01:00:00.965Z,100.00
2018-10-02T01:02:29.971Z,100.00
2018-10-02T01:04:59.070Z,100.00
2018-10-02T01:07:28.214Z,100.00
2018-10-02T01:09:57.739Z,100.00
2018-10-02T01:12:26.771Z,100.00
2018-10-02T01:14:55.904Z,100.00
2018-10-02T01:17:25.197Z,100.00
2018-10-02T01:19:54.274Z,100.00
2018-10-02T01:22:23.443Z,100.00
2018-10-02T01:24:52.524Z,100.00
2018-10-02T01:27:21.539Z,100.00
2018-10-02T01:29:50.686Z,100.00
2018-10-02T01:32:19.804Z,100.00
2018-10-02T01:34:48.825Z,100.00
2018-10-02T01:37:17.875Z,100.00
2018-10-02T01:39:46.899Z,100.00
2018-10-02T01:42:16.421Z,100.00
2018-10-02T01:44:46.008Z,100.00
2018-10-02T01:47:15.410Z,100.00
2018-10-02T01:49:44.547Z,100.00
2018-10-02T01:52:13.837Z,100.00
2018-10-02T01:54:43.168Z,100.00
2018-10-02T01:57:12.575Z,100.00
2018-10-02T01:59:41.963Z,100.00
2018-10-02T02:02:11.442Z,100.00
2018-10-02T02:04:40.487Z,100.00
2018-10-02T02:07:09.614Z,100.00
2018-10-02T02:09:38.674Z,100.00
2018-10-02T02:12:08.016Z,100.00
2018-10-02T02:14:37.190Z,100.00
2018-10-02T02:17:06.228Z,100.00
2018-10-02T02:19:35.251Z,100.00
2018-10-02T02:22:04.361Z,100.00
2018-10-02T02:24:33.602Z,100.00
2018-10-02T02:27:02.664Z,100.00
2018-10-02T02:29:31.730Z,100.00
2018-10-02T02:32:00.816Z,100.00
2018-10-02T02:34:29.871Z,100.00
2018-10-02T02:36:58.916Z,100.00
2018-10-02T02:39:28.075Z,100.00
2018-10-02T02:41:57.249Z,100.00
2018-10-02T02:44:26.754Z,100.00
2018-10-02T02:47:00.660Z,100.00
2018-10-02T02:49:34.722Z,100.00
2018-10-02T02:52:03.939Z,100.00
2018-10-02T02:54:32.998Z,100.00
2018-10-02T02:57:02.063Z,100.00
2018-10-02T02:59:31.109Z,100.00
2018-10-02T03:02:00.125Z,100.00
2018-10-02T03:04:29.257Z,100.00
2018-10-02T03:06:58.494Z,100.00
2018-10-02T03:09:27.546Z,100.00
2018-10-02T03:11:56.733Z,100.00
2018-10-02T03:14:25.758Z,100.00
2018-10-02T03:16:54.966Z,100.00
2018-10-02T03:19:24.445Z,100.00
2018-10-02T03:21:53.591Z,100.00
2018-10-02T03:24:22.991Z,100.00
2018-10-02T03:26:52.098Z,100.00
2018-10-02T03:29:21.219Z,100.00
2018-10-02T03:31:50.614Z,100.00
2018-10-02T03:34:20.013Z,100.00
2018-10-02T03:36:49.150Z,100.00
2018-10-02T03:39:18.390Z,100.00
2018-10-02T03:41:47.533Z,100.00
2018-10-02T03:44:16.607Z,100.00
2018-10-02T03:46:45.753Z,100.00
2018-10-02T03:49:14.900Z,100.00
2018-10-02T03:51:43.897Z,100.00
2018-10-02T03:54:13.051Z,100.00
2018-10-02T03:56:42.235Z,100.00
2018-10-02T03:59:11.643Z,100.00
2018-10-02T04:01:41.156Z,100.00
2018-10-02T04:04:10.559Z,100.00
2018-10-02T04:06:40.076Z,100.00
2018-10-02T04:09:11.009Z,100.00
2018-10-02T04:11:40.558Z,100.00
2018-10-02T04:14:09.590Z,100.00
2018-10-02T04:16:38.873Z,100.00
2018-10-02T04:19:08.305Z,100.00
2018-10-02T04:21:38.054Z,100.00
2018-10-02T04:24:08.529Z,100.00
2018-10-02T04:26:38.171Z,100.00
2018-10-02T04:29:07.826Z,100.00
2018-10-02T04:31:38.007Z,100.00
2018-10-02T04:34:07.224Z,100.00
2018-10-02T04:36:36.822Z,100.00
2018-10-02T04:39:08.600Z,100.00
2018-10-02T04:41:37.931Z,100.00
2018-10-02T04:44:06.987Z,100.00
2018-10-02T04:46:36.063Z,100.00
2018-10-02T04:49:05.163Z,100.00
2018-10-02T04:51:34.265Z,100.00
2018-10-02T04:54:03.323Z,100.00
2018-10-02T04:56:32.408Z,100.00
2018-10-02T04:59:01.430Z,100.00
2018-10-02T05:01:30.542Z,100.00
2018-10-02T05:03:59.705Z,100.00
2018-10-02T05:06:28.835Z,100.00
2018-10-02T05:08:57.865Z,100.00
2018-10-02T05:11:26.990Z,100.00
2018-10-02T05:13:56.069Z,100.00
2018-10-02T05:16:25.450Z,100.00
2018-10-02T05:18:54.755Z,100.00
2018-10-02T05:21:24.099Z,100.00
2018-10-02T05:23:53.477Z,100.00
2018-10-02T05:26:22.621Z,100.00
2018-10-02T05:28:51.658Z,100.00
2018-10-02T05:31:20.702Z,100.00
2018-10-02T05:33:49.756Z,100.00
2018-10-02T05:36:18.967Z,100.00
2018-10-02T05:38:47.997Z,100.00
2018-10-02T05:41:17.217Z,100.00
2018-10-02T05:43:47.158Z,100.00
2018-10-02T05:46:16.267Z,100.00
2018-10-02T05:48:45.408Z,100.00
2018-10-02T05:51:15.157Z,100.00
2018-10-02T05:53:44.164Z,100.00
2018-10-02T05:56:13.305Z,100.00
2018-10-02T05:58:42.361Z,100.00
2018-10-02T06:01:11.490Z,100.00
2018-10-02T06:03:40.477Z,100.00
2018-10-02T06:06:09.520Z,100.00
2018-10-02T06:08:38.648Z,100.00
2018-10-02T06:11:07.829Z,100.00
2018-10-02T06:13:36.984Z,100.00
2018-10-02T06:16:05.999Z,100.00
2018-10-02T06:18:35.181Z,100.00
2018-10-02T06:21:04.452Z,100.00
2018-10-02T06:23:33.834Z,100.00
2018-10-02T06:26:02.858Z,100.00
2018-10-02T06:28:31.936Z,100.00
2018-10-02T06:31:01.015Z,100.00
2018-10-02T06:33:30.141Z,100.00
2018-10-02T06:35:59.141Z,100.00
2018-10-02T06:38:28.490Z,100.00
2018-10-02T06:40:57.355Z,100.00
2018-10-02T06:43:26.552Z,100.00
2018-10-02T06:45:55.621Z,100.00
2018-10-02T06:48:24.814Z,100.00
2018-10-02T06:50:54.145Z,100.00
2018-10-02T06:53:23.451Z,100.00
2018-10-02T06:55:52.774Z,100.00
2018-10-02T06:58:21.812Z,100.00
2018-10-02T07:00:51.172Z,100.00
2018-10-02T07:03:20.314Z,100.00
2018-10-02T07:05:49.449Z,100.00
2018-10-02T07:08:18.671Z,100.00
2018-10-02T07:10:48.044Z,100.00
2018-10-02T07:13:17.373Z,100.00
2018-10-02T07:15:46.760Z,100.00
2018-10-02T07:18:16.152Z,100.00
2018-10-02T07:20:45.278Z,100.00
2018-10-02T07:23:14.687Z,100.00
2018-10-02T07:25:43.729Z,100.00
2018-10-02T07:28:12.782Z,100.00
2018-10-02T07:30:42.000Z,100.00
2018-10-02T07:33:11.026Z,100.00
2018-10-02T07:35:40.112Z,100.00
2018-10-02T07:38:09.195Z,100.00
2018-10-02T07:40:38.272Z,100.00
2018-10-02T07:43:07.326Z,100.00
2018-10-02T07:45:36.505Z,100.00
2018-10-02T07:48:05.668Z,100.00
2018-10-02T07:50:34.865Z,100.00
2018-10-02T07:53:03.979Z,100.00
2018-10-02T07:55:33.332Z,100.00
2018-10-02T07:58:02.540Z,100.00
2018-10-02T08:00:31.567Z,100.00
2018-10-02T08:03:00.758Z,100.00
2018-10-02T08:05:30.155Z,100.00
2018-10-02T08:07:59.316Z,100.00
2018-10-02T08:10:28.389Z,100.00
2018-10-02T08:12:57.461Z,100.00
2018-10-02T08:15:26.656Z,100.00
2018-10-02T08:17:55.881Z,100.00
2018-10-02T08:20:24.946Z,100.00
2018-10-02T08:22:54.147Z,100.00
2018-10-02T08:25:23.714Z,100.00
2018-10-02T08:27:53.280Z,100.00
2018-10-02T08:30:22.419Z,100.00
2018-10-02T08:32:51.608Z,100.00
2018-10-02T08:35:20.761Z,100.00
2018-10-02T08:37:49.871Z,100.00
2018-10-02T08:40:18.979Z,100.00
2018-10-02T08:42:47.996Z,100.00
2018-10-02T08:45:17.112Z,100.00
2018-10-02T08:47:46.247Z,100.00
2018-10-02T08:50:15.296Z,100.00
2018-10-02T08:52:44.465Z,100.00
2018-10-02T08:55:13.661Z,100.00
2018-10-02T08:57:42.783Z,100.00
2018-10-02T09:00:11.817Z,100.00
2018-10-02T09:02:40.984Z,100.00
2018-10-02T09:05:10.034Z,100.00
2018-10-02T09:07:39.094Z,100.00
2018-10-02T09:10:08.430Z,100.00
2018-10-02T09:12:37.557Z,100.00
2018-10-02T09:15:12.156Z,100.00
2018-10-02T09:17:36.113Z,100.00
2018-10-02T09:20:05.218Z,100.00
2018-10-02T09:22:34.253Z,100.00
2018-10-02T09:25:03.434Z,100.00
2018-10-02T09:27:32.443Z,100.00
2018-10-02T09:30:06.705Z,100.00
2018-10-02T09:32:40.957Z,100.00
2018-10-02T09:35:14.966Z,100.00
2018-10-02T09:37:49.012Z,100.00
2018-10-02T09:40:23.273Z,100.00
2018-10-02T09:42:57.540Z,100.00
2018-10-02T09:45:27.475Z,100.00
2018-10-02T09:47:58.168Z,100.00
2018-10-02T09:50:27.217Z,100.00
2018-10-02T09:52:56.377Z,100.00
2018-10-02T09:55:25.422Z,100.00
2018-10-02T09:57:54.431Z,100.00
2018-10-02T10:00:27.587Z,100.00
2018-10-02T10:02:57.410Z,99.63
2018-10-02T10:05:27.737Z,99.77
2018-10-02T10:07:56.830Z,99.25
2018-10-02T10:10:26.340Z,99.73
2018-10-02T10:12:55.360Z,99.03
2018-10-02T10:15:24.633Z,97.92
2018-10-02T10:17:54.153Z,99.61
2018-10-02T10:20:23.409Z,94.66
2018-10-02T10:22:52.628Z,95.64
2018-10-02T10:25:21.765Z,93.64
2018-10-02T10:27:51.124Z,94.73
2018-10-02T10:30:20.203Z,94.01
2018-10-02T10:32:49.272Z,93.95
2018-10-02T10:35:18.357Z,96.57
2018-10-02T10:37:47.447Z,95.43
2018-10-02T10:40:17.730Z,96.27
2018-10-02T10:42:47.099Z,99.14
2018-10-02T10:45:16.396Z,96.41
2018-10-02T10:47:45.622Z,98.71
2018-10-02T10:50:15.275Z,97.25
2018-10-02T10:52:44.470Z,99.07
2018-10-02T10:55:22.716Z,96.76
2018-10-02T10:57:52.443Z,95.64
2018-10-02T11:00:22.065Z,94.93
2018-10-02T11:02:51.514Z,94.95
2018-10-02T11:05:20.659Z,94.69
2018-10-02T11:07:49.700Z,95.07
2018-10-02T11:10:19.604Z,94.73
2018-10-02T11:12:49.168Z,92.63
2018-10-02T11:15:19.423Z,93.23
2018-10-02T11:17:48.744Z,93.80
2018-10-02T11:20:23.081Z,93.14
2018-10-02T11:22:52.322Z,90.41
2018-10-02T11:25:21.722Z,89.31
2018-10-02T11:27:50.788Z,90.25
2018-10-02T11:30:19.906Z,90.44
2018-10-02T11:32:49.406Z,86.74
2018-10-02T11:35:18.814Z,90.11
2018-10-02T11:37:48.222Z,89.86
2018-10-02T11:40:17.677Z,89.92
2018-10-02T11:42:46.775Z,90.69
2018-10-02T11:45:15.949Z,91.17
2018-10-02T11:47:45.112Z,91.43
2018-10-02T11:50:14.111Z,91.71
2018-10-02T11:52:43.276Z,90.28
2018-10-02T11:55:12.383Z,90.21
2018-10-02T11:57:41.618Z,89.72
2018-10-02T12:00:10.903Z,88.48
2018-10-02T12:02:40.433Z,88.63
2018-10-02T12:05:09.464Z,87.88
2018-10-02T12:07:38.516Z,89.62
2018-10-02T12:10:07.658Z,87.51
2018-10-02T12:12:36.837Z,87.54
2018-10-02T12:15:06.162Z,87.34
2018-10-02T12:17:35.289Z,87.69
2018-10-02T12:20:04.422Z,89.56
2018-10-02T12:22:33.431Z,89.53
2018-10-02T12:25:02.561Z,89.36
2018-10-02T12:27:31.654Z,90.65
2018-10-02T12:30:00.745Z,87.41
2018-10-02T12:32:29.938Z,89.61
2018-10-02T12:34:59.142Z,90.34
2018-10-02T12:37:28.418Z,87.15
2018-10-02T12:39:57.548Z,86.95
2018-10-02T12:42:26.984Z,86.28
2018-10-02T12:44:56.601Z,87.05
2018-10-02T12:47:26.146Z,88.79
2018-10-02T12:49:55.527Z,86.90
2018-10-02T12:52:25.190Z,86.17
2018-10-02T12:54:54.236Z,86.21
2018-10-02T12:57:23.584Z,89.11
2018-10-02T12:59:52.628Z,86.87
2018-10-02T13:02:21.637Z,87.60
2018-10-02T13:04:50.678Z,85.30
2018-10-02T13:07:19.832Z,84.25
2018-10-02T13:09:48.907Z,84.38
2018-10-02T13:12:18.056Z,84.14
2018-10-02T13:14:47.237Z,84.73
2018-10-02T13:17:16.320Z,81.45
2018-10-02T13:19:45.719Z,81.00
2018-10-02T13:22:15.296Z,82.83
2018-10-02T13:24:44.911Z,83.55
2018-10-02T13:27:13.899Z,84.04
2018-10-02T13:29:42.932Z,81.44
2018-10-02T13:32:12.550Z,81.25
2018-10-02T13:34:41.783Z,82.38
2018-10-02T13:37:10.867Z,81.53
2018-10-02T13:39:40.360Z,80.61
2018-10-02T13:42:09.462Z,78.52
2018-10-02T13:44:38.539Z,78.47
2018-10-02T13:47:07.641Z,77.34
2018-10-02T13:49:36.776Z,76.93
2018-10-02T13:52:05.809Z,78.12
2018-10-02T13:54:34.898Z,77.29
2018-10-02T13:57:04.080Z,76.02
2018-10-02T13:59:33.455Z,73.93
2018-10-02T14:02:02.559Z,76.26
2018-10-02T14:04:31.659Z,78.35
2018-10-02T14:07:00.780Z,78.59
2018-10-02T14:09:29.942Z,77.73
2018-10-02T14:11:58.968Z,77.30
2018-10-02T14:14:28.324Z,76.81
2018-10-02T14:16:57.473Z,76.89
2018-10-02T14:19:26.912Z,75.98
2018-10-02T14:21:56.256Z,76.42
2018-10-02T14:24:25.520Z,78.20
2018-10-02T14:26:54.983Z,78.86
2018-10-02T14:29:24.539Z,79.13
2018-10-02T14:31:53.843Z,77.69
2018-10-02T14:34:23.492Z,78.12
2018-10-02T14:36:52.942Z,76.25
2018-10-02T14:39:22.430Z,76.21
2018-10-02T14:41:51.568Z,80.99
2018-10-02T14:44:20.815Z,80.41
2018-10-02T14:46:49.922Z,77.78
2018-10-02T14:49:19.116Z,76.41
2018-10-02T14:51:48.263Z,76.11
2018-10-02T14:54:17.322Z,77.90
2018-10-02T14:56:46.460Z,79.15
2018-10-02T14:59:15.745Z,80.13
2018-10-02T15:01:44.897Z,80.88
2018-10-02T15:04:13.869Z,77.87
2018-10-02T15:06:43.193Z,74.05
2018-10-02T15:09:12.891Z,73.53
2018-10-02T15:11:42.003Z,76.70
2018-10-02T15:14:11.126Z,78.87
2018-10-02T15:16:40.312Z,81.49
2018-10-02T15:19:09.339Z,81.49
2018-10-02T15:21:38.425Z,83.88
2018-10-02T15:24:07.486Z,83.73
2018-10-02T15:26:36.568Z,82.47
2018-10-02T15:29:05.757Z,82.26
2018-10-02T15:31:35.147Z,80.96
2018-10-02T15:34:04.564Z,83.67
2018-10-02T15:36:33.864Z,82.16
2018-10-02T15:39:03.020Z,81.91
2018-10-02T15:41:32.126Z,83.72
2018-10-02T15:44:01.222Z,87.35
2018-10-02T15:46:30.456Z,90.50
2018-10-02T15:48:59.560Z,93.70
2018-10-02T15:51:28.725Z,95.82
2018-10-02T15:53:57.781Z,96.97
2018-10-02T15:56:26.974Z,100.00
2018-10-02T15:58:56.067Z,100.00
2018-10-02T16:01:25.842Z,100.00
2018-10-02T16:03:54.951Z,100.00
2018-10-02T16:06:24.004Z,100.00
2018-10-02T16:08:53.080Z,100.00
2018-10-02T16:11:22.197Z,100.00
2018-10-02T16:13:51.312Z,100.00
2018-10-02T16:16:20.510Z,100.00
2018-10-02T16:18:49.940Z,100.00
2018-10-02T16:21:19.404Z,100.00
2018-10-02T16:23:48.985Z,100.00
2018-10-02T16:26:18.347Z,100.00
2018-10-02T16:28:47.601Z,100.00
2018-10-02T16:31:16.851Z,100.00
2018-10-02T16:33:45.890Z,100.00
2018-10-02T16:36:15.033Z,100.00
2018-10-02T16:38:44.278Z,100.00
2018-10-02T16:41:13.685Z,100.00
2018-10-02T16:43:42.834Z,100.00
2018-10-02T16:46:11.974Z,100.00
2018-10-02T16:48:41.256Z,100.00
2018-10-02T16:51:10.366Z,100.00
2018-10-02T16:53:39.514Z,100.00
2018-10-02T16:56:08.543Z,100.00
2018-10-02T16:58:38.395Z,100.00
2018-10-02T17:01:07.805Z,100.00
2018-10-02T17:03:37.304Z,100.00
2018-10-02T17:06:06.410Z,100.00
2018-10-02T17:08:35.498Z,100.00
2018-10-02T17:11:04.792Z,100.00
2018-10-02T17:13:34.159Z,100.00
2018-10-02T17:16:03.336Z,100.00
2018-10-02T17:18:32.367Z,100.00
2018-10-02T17:21:01.513Z,100.00
2018-10-02T17:23:31.177Z,100.00
2018-10-02T17:26:00.170Z,100.00
2018-10-02T17:28:29.362Z,100.00
2018-10-02T17:30:58.433Z,100.00
2018-10-02T17:33:27.752Z,100.00
2018-10-02T17:35:56.964Z,100.00
2018-10-02T17:38:26.026Z,100.00
2018-10-02T17:40:55.465Z,100.00
2018-10-02T17:43:24.648Z,100.00
2018-10-02T17:45:53.788Z,100.00
2018-10-02T17:48:22.796Z,100.00
2018-10-02T17:50:52.188Z,100.00
2018-10-02T17:53:22.018Z,100.00
2018-10-02T17:55:51.723Z,100.00
2018-10-02T17:58:21.134Z,100.00
2018-10-02T18:00:50.258Z,100.00
2018-10-02T18:03:19.433Z,100.00
2018-10-02T18:05:48.886Z,100.00
2018-10-02T18:08:18.027Z,100.00
2018-10-02T18:10:47.491Z,100.00
2018-10-02T18:13:16.710Z,100.00
2018-10-02T18:15:46.240Z,100.00
2018-10-02T18:18:15.393Z,100.00
2018-10-02T18:20:44.544Z,100.00
2018-10-02T18:23:13.628Z,100.00
2018-10-02T18:25:42.733Z,100.00
2018-10-02T18:28:11.796Z,100.00
2018-10-02T18:30:40.873Z,100.00
2018-10-02T18:33:10.202Z,100.00
2018-10-02T18:35:39.313Z,100.00
2018-10-02T18:38:08.335Z,100.00
2018-10-02T18:40:37.497Z,100.00
2018-10-02T18:43:06.574Z,100.00
2018-10-02T18:45:35.712Z,100.00
2018-10-02T18:48:04.716Z,100.00
2018-10-02T18:50:33.871Z,100.00
2018-10-02T18:53:03.078Z,100.00
2018-10-02T18:55:32.480Z,100.00
2018-10-02T18:58:01.638Z,100.00
2018-10-02T19:00:31.032Z,100.00
2018-10-02T19:03:00.673Z,100.00
2018-10-02T19:05:30.608Z,100.00
2018-10-02T19:07:59.689Z,100.00
2018-10-02T19:10:29.208Z,100.00
2018-10-02T19:12:58.868Z,100.00
2018-10-02T19:15:32.192Z,100.00
2018-10-02T19:18:01.291Z,100.00
2018-10-02T19:20:35.320Z,100.00
2018-10-02T19:23:04.432Z,100.00
2018-10-02T19:25:38.416Z,100.00
2018-10-02T19:28:07.947Z,100.00
2018-10-02T19:30:42.062Z,100.00
2018-10-02T19:33:11.466Z,100.00
2018-10-02T19:35:40.663Z,100.00
2018-10-02T19:38:14.588Z,100.00
2018-10-02T19:40:43.664Z,100.00
2018-10-02T19:43:14.755Z,100.00
2018-10-02T19:45:48.928Z,100.00
2018-10-02T19:48:19.736Z,100.00
2018-10-02T19:53:45.974Z,100.00
2018-10-02T19:58:56.735Z,100.00
2018-10-02T20:01:25.784Z,100.00
2018-10-02T20:03:54.914Z,100.00
2018-10-02T20:06:26.125Z,100.00
2018-10-02T20:08:55.258Z,100.00
2018-10-02T20:11:24.322Z,100.00
2018-10-02T20:13:53.377Z,100.00
2018-10-02T20:16:22.472Z,100.00
2018-10-02T20:18:51.562Z,100.00
2018-10-02T20:21:20.969Z,100.00
2018-10-02T20:23:50.004Z,100.00
2018-10-02T20:26:19.180Z,100.00
2018-10-02T20:28:48.235Z,100.00
2018-10-02T20:31:17.360Z,100.00
2018-10-02T20:33:46.676Z,100.00
2018-10-02T20:36:15.756Z,100.00
2018-10-02T20:38:44.945Z,100.00
2018-10-02T20:41:14.015Z,100.00
2018-10-02T20:43:43.210Z,100.00
2018-10-02T20:46:12.335Z,100.00
2018-10-02T20:48:41.473Z,100.00
2018-10-02T20:51:10.916Z,100.00
2018-10-02T20:53:39.997Z,100.00
2018-10-02T20:56:09.028Z,100.00
2018-10-02T20:58:38.391Z,100.00
2018-10-02T21:01:07.957Z,100.00
2018-10-02T21:03:37.221Z,100.00
2018-10-02T21:06:06.622Z,100.00
2018-10-02T21:08:35.729Z,100.00
2018-10-02T21:11:04.847Z,100.00
2018-10-02T21:13:34.008Z,100.00
2018-10-02T21:16:03.061Z,100.00
2018-10-02T21:18:32.210Z,100.00
2018-10-02T21:21:01.512Z,100.00
2018-10-02T21:23:31.070Z,100.00
2018-10-02T21:26:00.419Z,100.00
2018-10-02T21:28:29.734Z,100.00
2018-10-02T21:30:58.806Z,100.00
2018-10-02T21:33:27.964Z,100.00
2018-10-02T21:35:57.261Z,100.00
2018-10-02T21:38:26.320Z,100.00
2018-10-02T21:40:55.708Z,100.00
2018-10-02T21:43:25.240Z,100.00
2018-10-02T21:45:54.323Z,100.00
2018-10-02T21:48:23.425Z,100.00
2018-10-02T21:50:52.482Z,100.00
2018-10-02T21:53:21.612Z,100.00
2018-10-02T21:55:50.643Z,100.00
2018-10-02T21:58:20.076Z,100.00
2018-10-02T22:00:49.540Z,100.00
2018-10-02T22:03:18.959Z,100.00
2018-10-02T22:05:48.544Z,100.00
2018-10-02T22:08:17.996Z,100.00
2018-10-02T22:10:47.502Z,100.00
2018-10-02T22:13:17.004Z,100.00
2018-10-02T22:15:46.687Z,100.00
2018-10-02T22:18:16.091Z,100.00
2018-10-02T22:20:45.519Z,100.00
2018-10-02T22:23:14.893Z,100.00
2018-10-02T22:25:44.214Z,100.00
2018-10-02T22:28:13.442Z,100.00
2018-10-02T22:30:42.949Z,100.00
2018-10-02T22:33:12.739Z,100.00
2018-10-02T22:35:43.170Z,100.00
2018-10-02T22:38:12.736Z,100.00
2018-10-02T22:40:42.083Z,100.00
2018-10-02T22:43:11.480Z,100.00
2018-10-02T22:45:40.872Z,100.00
2018-10-02T22:48:10.351Z,100.00
2018-10-02T22:50:39.908Z,100.00
2018-10-02T22:53:09.406Z,100.00
2018-10-02T22:55:38.828Z,100.00
2018-10-02T22:58:08.608Z,100.00
2018-10-02T23:00:37.997Z,100.00
2018-10-02T23:03:07.310Z,100.00
2018-10-02T23:05:36.780Z,100.00
2018-10-02T23:08:06.104Z,100.00
2018-10-02T23:10:35.674Z,100.00
2018-10-02T23:13:05.062Z,100.00
2018-10-02T23:15:34.489Z,100.00
2018-10-02T23:18:04.074Z,100.00
2018-10-02T23:20:33.653Z,100.00
2018-10-02T23:23:03.184Z,100.00
2018-10-02T23:25:32.490Z,100.00
2018-10-02T23:28:01.875Z,100.00
2018-10-02T23:30:31.473Z,100.00
2018-10-02T23:33:01.069Z,100.00
2018-10-02T23:35:30.375Z,100.00
2018-10-02T23:37:59.717Z,100.00
2018-10-02T23:40:29.269Z,100.00
2018-10-02T23:42:58.682Z,100.00
2018-10-02T23:45:28.207Z,100.00
2018-10-02T23:47:57.767Z,100.00
2018-10-02T23:50:27.336Z,100.00
2018-10-02T23:52:56.846Z,100.00
2018-10-02T23:55:26.404Z,100.00
2018-10-02T23:57:55.742Z,100.00
